Time;durP1;ratioP1;P1;durP2;ratioP2;P2;SDS_P1;SDS_P2;PMS_P1;PMS_P2;Temp;Humidity;BMP_temperature;BMP_pressure;BME280_temperature;BME280_humidity;BME280_pressure;Samples;Min_cycle;Max_cycle;Signal;HPM_P1;HPM_P2
2023/08/21 00:02:15;;;;;;;20.20;17.60;;;;;;;21.38;72.01;99117.72;435436;1252;107584;-43
2023/08/21 00:12:22;;;;;;;17.70;15.50;;;;;;;21.40;72.16;99110.23;435431;1252;99346;-41
2023/08/21 00:22:27;;;;;;;19.20;16.50;;;;;;;21.28;72.40;99105.04;435458;1249;107668;-42
2023/08/21 00:32:34;;;;;;;20.00;17.80;;;;;;;21.31;72.68;99111.67;435052;1252;466468;-42
2023/08/21 00:42:41;;;;;;;20.90;18.70;;;;;;;21.34;72.91;99109.17;435358;1252;111803;-42
2023/08/21 00:52:48;;;;;;;19.60;15.70;;;;;;;21.33;72.94;99109.88;435360;1252;108222;-43
2023/08/21 01:02:54;;;;;;;19.10;16.90;;;;;;;21.27;72.96;99107.47;435385;1253;98828;-42
2023/08/21 01:13:12;;;;;;;17.80;15.90;;;;;;;21.30;73.35;99100.27;435344;1252;107105;-43
2023/08/21 01:23:32;;;;;;;19.70;17.70;;;;;;;21.36;73.44;99101.17;435464;1252;99266;-42
2023/08/21 02:14:08;;;;;;;19.30;16.70;;;;;;;20.89;74.22;99060.30;435432;1249;98807;-43
2023/08/21 02:24:15;;;;;;;18.70;16.00;;;;;;;20.82;74.63;99059.25;435447;1252;111915;-42
2023/08/21 02:34:22;;;;;;;20.50;18.40;;;;;;;20.75;74.77;99059.81;435371;1254;107868;-42
2023/08/21 02:44:30;;;;;;;18.80;16.90;;;;;;;20.63;75.02;99062.68;435480;1252;99327;-41
2023/08/21 02:54:37;;;;;;;19.50;17.60;;;;;;;20.50;75.25;99070.17;435376;1261;108516;-42
2023/08/21 03:04:44;;;;;;;19.90;16.50;;;;;;;20.46;75.98;99071.98;435386;1253;99258;-42
2023/08/21 03:14:50;;;;;;;22.20;17.30;;;;;;;20.51;75.87;99072.36;435500;1263;111521;-42
2023/08/21 03:45:11;;;;;;;22.80;17.90;;;;;;;20.48;76.29;99076.80;435518;1261;107648;-42
2023/08/21 03:55:18;;;;;;;22.50;18.40;;;;;;;20.34;76.50;99059.39;435389;1253;97955;-42
2023/08/21 04:05:25;;;;;;;24.80;19.30;;;;;;;20.42;76.90;99059.18;435380;1253;112840;-43
2023/08/21 04:15:32;;;;;;;28.80;19.50;;;;;;;20.66;77.04;99055.92;435286;1261;108308;-42
2023/08/21 04:25:39;;;;;;;24.20;18.90;;;;;;;20.94;77.10;99041.54;435544;1261;99743;-43
2023/08/21 04:35:45;;;;;;;20.40;17.80;;;;;;;21.23;77.25;99051.29;435321;1256;107129;-42
2023/08/21 04:55:59;;;;;;;22.80;19.50;;;;;;;21.73;77.19;99082.47;435313;1251;110732;-42
2023/08/21 05:06:08;;;;;;;20.90;17.90;;;;;;;21.96;77.22;99092.64;435498;1249;108643;-43
2023/08/21 05:16:15;;;;;;;21.60;18.10;;;;;;;22.17;76.98;99115.76;435512;1253;99269;-43
2023/08/21 05:26:23;;;;;;;24.40;18.60;;;;;;;21.99;76.66;99150.38;435503;1251;108792;-43
2023/08/21 05:36:30;;;;;;;19.70;17.10;;;;;;;21.74;77.02;99167.07;435580;1253;99218;-43
2023/08/21 05:46:37;;;;;;;21.50;19.20;;;;;;;21.63;77.33;99184.23;435453;1252;111949;-43
2023/08/21 05:56:45;;;;;;;20.50;18.40;;;;;;;21.53;77.87;99210.36;435660;1255;107555;-43
2023/08/21 06:27:03;;;;;;;26.40;21.40;;;;;;;21.30;79.68;99216.38;435507;1261;99202;-42
2023/08/21 06:37:14;;;;;;;26.30;22.20;;;;;;;21.25;80.10;99219.15;435559;1254;112252;-44
2023/08/21 06:57:27;;;;;;;28.00;23.80;;;;;;;21.26;81.14;99199.06;435703;1263;99231;-43
2023/08/21 07:17:38;;;;;;;19.80;17.70;;;;;;;21.75;82.28;99229.94;435588;1255;98835;-43
2023/08/21 07:27:45;;;;;;;20.60;18.60;;;;;;;21.86;82.62;99239.17;435603;1263;111741;-43
2023/08/21 07:37:51;;;;;;;17.20;15.50;;;;;;;21.94;82.81;99239.34;435643;1251;108604;-44
2023/08/21 07:58:04;;;;;;;18.60;16.40;;;;;;;21.94;83.05;99248.50;435607;1254;107434;-43
2023/08/21 08:08:11;;;;;;;17.70;15.90;;;;;;;21.93;82.95;99237.21;435695;1252;98866;-43
2023/08/21 08:28:24;;;;;;;15.40;13.80;;;;;;;22.12;83.50;99245.71;435586;1254;107755;-42
2023/08/21 08:38:31;;;;;;;15.20;13.80;;;;;;;22.24;83.56;99237.51;435799;1255;99860;-44
2023/08/21 08:48:38;;;;;;;13.40;12.10;;;;;;;22.46;83.56;99231.21;435731;1254;108222;-43
2023/08/21 08:58:45;;;;;;;12.10;10.90;;;;;;;22.52;83.62;99214.73;436779;1253;99215;-44
2023/08/21 09:29:15;;;;;;;;;;;;;;;24.29;83.39;99204.01;438160;1252;99206;-41
2023/08/21 09:39:22;;;;;;;10.60;9.50;;;;;;;24.76;82.90;99197.98;438562;1252;107166;-42
2023/08/21 09:49:29;;;;;;;11.70;10.60;;;;;;;25.30;82.10;99187.45;438737;1250;98592;-43
2023/08/21 10:09:42;;;;;;;10.70;9.80;;;;;;;25.81;80.09;99178.52;438385;1253;108318;-40
2023/08/21 10:19:54;;;;;;;9.50;8.60;;;;;;;25.87;79.34;99177.80;438284;1253;99191;-41
2023/08/21 10:30:00;;;;;;;9.80;8.90;;;;;;;25.86;78.80;99181.48;437295;1252;107427;-40
2023/08/21 11:30:47;;;;;;;7.00;6.40;;;;;;;26.92;75.00;99191.64;437472;1250;99291;-42
2023/08/21 11:40:54;;;;;;;7.20;6.50;;;;;;;26.93;73.82;99191.86;438397;1252;112896;-42
2023/08/21 12:01:09;;;;;;;6.80;6.30;;;;;;;27.69;72.56;99180.45;438235;1250;98826;-41
2023/08/21 12:11:17;;;;;;;7.10;6.10;;;;;;;27.66;71.50;99170.88;437793;1249;107397;-42
2023/08/21 12:41:37;;;;;;;8.10;7.40;;;;;;;27.36;71.29;99160.23;438355;1252;98732;-41
2023/08/21 12:51:45;;;;;;;8.00;7.40;;;;;;;27.21;71.04;99160.08;438816;1252;111243;-42
2023/08/21 13:02:10;;;;;;;9.40;8.20;;;;;;;27.45;70.79;99151.88;438391;1250;107845;-42
2023/08/21 13:22:24;;;;;;;8.80;6.70;;;;;;;27.61;69.55;99145.98;437171;1250;108444;-43
2023/08/21 13:32:30;;;;;;;11.90;8.50;;;;;;;27.67;68.78;99140.70;437441;1253;98856;-42
2023/08/21 13:42:37;;;;;;;8.50;7.80;;;;;;;27.76;68.59;99131.60;437327;1252;111971;-42
2023/08/21 13:52:44;;;;;;;11.00;7.60;;;;;;;27.74;68.27;99124.71;436967;1250;107514;-42
2023/08/21 14:02:51;;;;;;;8.30;7.60;;;;;;;27.87;68.01;99117.89;437203;1254;99221;-41
2023/08/21 14:12:59;;;;;;;8.60;7.80;;;;;;;27.83;67.61;99110.09;436466;1253;107907;-43
2023/08/21 14:23:06;;;;;;;9.20;8.40;;;;;;;27.76;67.95;99099.58;436022;1254;97935;-43
2023/08/21 14:33:13;;;;;;;11.50;7.10;;;;;;;27.63;67.57;99095.08;437084;1250;111279;-41
2023/08/21 14:43:17;;;;;;;7.90;7.30;;;;;;;27.25;67.01;99092.03;435546;1250;109428;-42
2023/08/21 14:53:24;;;;;;;7.00;6.30;;;;;;;27.36;67.18;99091.86;435714;1249;99373;-42
2023/08/21 15:03:33;;;;;;;8.40;7.60;;;;;;;27.17;66.95;99088.86;435295;1253;107137;-42
2023/08/21 15:23:47;;;;;;;7.30;6.60;;;;;;;27.10;65.99;99082.94;435540;1252;111257;-42
2023/08/21 15:54:04;;;;;;;10.00;6.50;;;;;;;26.54;64.63;99084.58;435206;1250;107673;-42
2023/08/21 16:04:09;;;;;;;8.30;7.00;;;;;;;26.30;64.57;99078.06;435396;1253;99234;-42
2023/08/21 16:14:17;;;;;;;8.20;6.40;;;;;;;25.96;64.48;99087.56;435287;1250;113121;-45
2023/08/21 16:34:30;;;;;;;7.10;4.80;;;;;;;25.71;63.81;99082.62;435450;1249;99218;-42
2023/08/21 16:44:37;;;;;;;9.40;5.10;;;;;;;25.52;63.76;99093.07;435211;1250;108036;-43
2023/08/21 16:54:44;;;;;;;11.30;7.90;;;;;;;25.36;63.73;99098.73;435329;1250;97989;-42
2023/08/21 17:04:51;;;;;;;11.10;7.80;;;;;;;25.21;64.03;99101.82;435184;1253;112178;-43
2023/08/21 17:14:59;;;;;;;12.40;6.70;;;;;;;25.17;64.49;99091.19;435419;1255;107742;-41
2023/08/21 17:25:08;;;;;;;11.30;8.00;;;;;;;24.98;64.53;99085.47;435259;1250;98018;-42
2023/08/21 17:35:20;;;;;;;10.60;6.70;;;;;;;24.65;65.53;99091.80;435285;1255;107992;-42
2023/08/21 17:45:27;;;;;;;11.70;6.70;;;;;;;24.27;66.01;99095.33;435206;1254;99259;-42
2023/08/21 17:55:34;;;;;;;9.60;6.80;;;;;;;23.89;66.67;99093.58;435205;1249;111653;-41
2023/08/21 18:25:56;;;;;;;10.00;6.70;;;;;;;22.88;68.91;99111.27;435302;1249;108086;-42
2023/08/21 18:36:04;;;;;;;12.10;6.40;;;;;;;22.66;69.33;99119.41;435268;1249;99270;-43
2023/08/21 18:46:13;;;;;;;9.20;6.90;;;;;;;22.38;69.86;99118.11;435215;1254;113141;-43
2023/08/21 18:56:19;;;;;;;16.00;7.00;;;;;;;22.05;70.45;99114.14;435423;1253;109508;-43
2023/08/21 19:26:38;;;;;;;13.70;8.10;;;;;;;21.45;72.13;99112.79;435243;1255;99253;-42
2023/08/21 19:36:45;;;;;;;11.70;8.50;;;;;;;21.15;72.71;99117.80;435326;1255;112119;-42
2023/08/21 19:46:51;;;;;;;12.50;7.90;;;;;;;21.13;73.31;99128.20;435319;1266;108435;-42
2023/08/21 19:56:58;;;;;;;9.00;7.70;;;;;;;20.92;73.54;99133.55;435411;1254;99103;-42
2023/08/21 20:07:10;;;;;;;9.00;7.40;;;;;;;20.78;73.80;99134.96;435214;1256;108258;-42
2023/08/21 20:17:15;;;;;;;7.30;6.60;;;;;;;20.60;74.09;99134.65;435225;1256;99257;-43
2023/08/21 20:27:36;;;;;;;13.90;7.30;;;;;;;20.48;74.57;99137.39;435245;1255;111965;-40
2023/08/21 20:37:45;;;;;;;8.70;7.30;;;;;;;20.48;75.09;99139.76;435190;1254;107634;-42
2023/08/21 20:47:51;;;;;;;10.80;8.60;;;;;;;20.44;75.23;99135.75;435280;1250;97992;-42
2023/08/21 20:57:56;;;;;;;10.50;7.80;;;;;;;20.17;75.25;99141.16;435497;1256;108445;-42
2023/08/21 21:08:03;;;;;;;8.90;7.80;;;;;;;20.04;75.43;99146.30;435310;1253;100736;-41
2023/08/21 21:18:10;;;;;;;13.20;9.00;;;;;;;19.99;76.02;99146.27;435322;1256;112089;-42
2023/08/21 22:08:44;;;;;;;15.70;10.20;;;;;;;19.72;76.81;99169.69;435516;1255;111770;-41
2023/08/21 22:28:58;;;;;;;11.70;9.20;;;;;;;19.31;77.32;99176.30;435217;1254;99322;-42
2023/08/21 22:39:01;;;;;;;13.90;9.60;;;;;;;19.17;77.27;99168.04;435253;1263;108110;-42
2023/08/21 22:49:08;;;;;;;12.90;9.80;;;;;;;18.97;77.69;99150.23;435248;1255;99208;-43
2023/08/21 22:59:14;;;;;;;14.60;9.40;;;;;;;18.94;78.28;99143.56;435046;1255;112959;-43
2023/08/21 23:09:21;;;;;;;11.60;8.90;;;;;;;18.88;78.27;99142.27;435295;1255;108392;-41
2023/08/21 23:19:26;;;;;;;10.00;8.10;;;;;;;18.89;78.62;99137.05;435390;1255;99221;-42
2023/08/21 23:29:33;;;;;;;10.00;8.30;;;;;;;18.90;78.67;99136.16;435257;1255;108554;-41
2023/08/21 23:39:39;;;;;;;12.60;8.00;;;;;;;18.70;78.59;99130.29;435327;1254;99235;-42
2023/08/21 23:49:46;;;;;;;10.80;7.70;;;;;;;18.60;78.78;99135.36;435204;1255;112981;-41
2023/08/21 23:59:52;;;;;;;12.60;9.40;;;;;;;18.49;79.04;99129.54;435341;1251;107843;-42
